Weather observations for the past three days for
Stillwater, Stillwater Regional Airport
Metric (Imperial)
Date Time (cdt) Wind (kph) Vis. (km) Weather Sky Cond. Temperature (ºC) Relative Humidity Wind Chill (°C) Heat Index (°C) Pressure Precipitation (cm)
Air Dwpt 6 hour altimeter (cm) sea level (mb) 1 hr 3 hr 6 hr
Max. Min.
03 06:53 S 15 16.09 Fair CLR 24.4 20 29.4 24.4 77% 25 76.05 1012.3
03 05:53 S 13 16.09 Fair CLR 25 20 74% 26 76.02 1011.9
03 04:53 S 17 16.09 Fair CLR 26.1 20 69% 27 76.02 1011.8
03 03:53 S 15 16.09 Fair CLR 26.1 20 69% 27 76 1011.6
03 02:53 Calm 16.09 Fair CLR 26.1 19.4 67% 27 76 1011.6
03 01:53 S 15 16.09 Fair CLR 27.8 19.4 60% 29 76 1011.7
03 00:53 S 19 16.09 Fair CLR 29.4 18.9 36.1 28.9 53% 31 76 1011.4
02 23:53 S 20 16.09 Fair CLR 29.4 17.8 50% 30 75.97 1011.0
02 22:53 S 15 16.09 Fair CLR 29.4 17.2 48% 30 75.97 1011.1
02 21:53 SE 17 16.09 Fair CLR 31.7 17.2 42% 32 75.95 1010.9
02 20:53 SE 17 16.09 Fair CLR 32.2 17.2 41% 33 75.92 1010.6
02 19:53 SE 11 16.09 Fair CLR 33.3 16.7 37% 34 75.87 1010.0
02 18:53 SE 22 16.09 Fair CLR 36.1 16.7 37.2 35 32% 37 75.87 1009.9
02 17:53 SE 19 16.09 Fair CLR 36.7 17.2 32% 38 75.9 1010.0
02 16:53 SE 20 16.09 Fair CLR 37.2 17.2 31% 38 75.92 1010.3
02 15:53 SE 19 16.09 Fair CLR 36.7 17.8 33% 38 75.97 1011.0
02 14:53 SE 24 16.09 Fair CLR 36.7 18.9 35% 39 76.02 1011.8
02 13:53 SE 17 16.09 Fair CLR 36.1 20 39% 39 76.1 1012.7
02 12:53 SE 15 G 33 16.09 Fair CLR 35 20 35 25 41% 38 76.15 1013.6
02 11:53 S 19 16.09 Fair CLR 33.9 20 44% 36 76.2 1014.5
02 10:53 S 20 16.09 Fair CLR 32.8 20.6 49% 36 76.23 1014.8
02 09:53 S 26 16.09 Fair CLR 31.1 20 52% 33 76.25 1015.0
02 08:53 S 20 16.09 Fair CLR 28.3 20 61% 30 76.25 1015.0
02 07:53 S 11 16.09 Fair CLR 26.1 19.4 67% 27 76.23 1014.8
02 06:53 S 13 16.09 Fair CLR 25.6 18.9 27.8 25 67% 27 76.17 1014.1
02 05:53 S 9 16.09 Fair CLR 25 18.9 69% 26 76.17 1013.7
02 04:53 S 13 16.09 Fair CLR 26.1 18.3 62% 27 76.15 1013.5
02 03:53 S 13 16.09 Fair CLR 26.7 18.3 60% 28 76.12 1013.4
02 02:53 S 9 16.09 Fair CLR 26.1 17.8 60% 27 76.12 1013.3
02 01:53 S 7 16.09 Fair CLR 26.7 17.8 58% 28 76.12 1013.2
02 00:53 S 11 16.09 Fair CLR 27.2 17.8 33.9 24.4 57% 28 76.1 1013.0
01 23:53 S 11 16.09 Fair CLR 27.2 17.2 54% 28 76.12 1013.1
01 22:53 S 7 16.09 Fair CLR 26.7 17.8 58% 28 76.1 1013.1
01 21:53 S 7 16.09 Fair CLR 26.7 17.8 58% 28 76.05 1012.5
01 20:53 SE 9 16.09 Fair CLR 31.1 16.1 40% 31 76 1011.6
01 19:53 SE 9 16.09 Fair CLR 32.2 16.1 38% 32 75.97 1011.5
01 18:53 S 9 16.09 Fair CLR 33.9 17.2 37.2 33.3 37% 35 76 1011.7
01 17:53 SE 15 16.09 A Few Clouds FEW100 36.7 15.6 28% 37 76.02 1011.8
01 16:53 SE 19 16.09 A Few Clouds FEW100 36.7 14.4 26% 36 76.02 1011.9
01 15:53 S 13 G 31 16.09 A Few Clouds FEW100 36.7 15 27% 37 76.07 1012.6
01 14:53 SE 15 16.09 Partly Cloudy SCT095 36.1 15.6 29% 36 76.12 1013.3
01 13:53 S 24 16.09 A Few Clouds FEW100 35 15 30% 35 76.17 1014.0
01 12:53 S 20 G 31 16.09 Partly Cloudy SCT090 36.1 16.1 36.1 20 30% 36 76.23 1014.7
01 11:53 S 13 16.09 Fair CLR 34.4 17.2 36% 35 76.28 1015.4
01 10:53 S 9 16.09 Fair CLR 32.2 18.9 45% 34 76.3 1015.7
01 09:53 SE 15 16.09 Fair CLR 30 18.9 51% 31 76.33 1016.0
01 08:53 S 7 16.09 Fair CLR 27.2 17.8 57% 28 76.33 1016.0
01 07:53 Calm 16.09 Fair CLR 23.3 18.3 74% 76.3 1015.7
01 06:53 Calm 16.09 Fair CLR 20.6 16.1 26.1 20.6 76% 76.25 1015.0
01 05:53 S 6 16.09 Fair CLR 22.8 15.6 64% 76.23 1014.6
01 04:53 SE 9 16.09 Fair CLR 23.3 15.6 62% 76.2 1014.4
01 03:53 Calm 16.09 Fair CLR 21.7 15.6 68% 76.17 1014.1
01 02:53 Calm 16.09 Fair CLR 23.3 15.6 62% 76.15 1013.8
01 01:53 S 13 16.09 Fair CLR 25.6 15 52% 26 76.15 1013.7
01 00:53 S 13 16.09 Fair CLR 25.6 15 35.6 25.6 52% 26 76.15 1013.7
31 23:53 S 9 16.09 Fair CLR 27.2 15 47% 27 76.15 1013.5
31 22:53 S 15 16.09 Fair CLR 28.9 14.4 41% 29 76.15 1013.4
31 21:53 S 17 16.09 Fair CLR 30 15 40% 30 76.1 1012.9
31 20:53 S 15 16.09 Fair CLR 31.1 15 38% 31 76.05 1012.1
31 19:53 SE 17 16.09 Fair CLR 33.3 14.4 32% 33 76 1011.8
31 18:53 S 20 16.09 Fair CLR 35.6 15.6 37.2 34.4 30% 36 76 1011.5
31 17:53 S 20 16.09 A Few Clouds FEW095 36.7 16.1 29% 37 76 1011.4
31 16:53 S 28 G 37 16.09 Fair CLR 36.7 16.7 31% 37 76 1011.6
31 15:53 S 19 16.09 A Few Clouds FEW090 37.2 16.7 30% 38 76.02 1011.9
31 14:53 SE 20 16.09 Partly Cloudy SCT095 36.7 17.2 32% 38 76.1 1012.7
31 13:53 S 6 16.09 Mostly Cloudy BKN090 35 17.2 35% 36 76.12 1013.2
31 12:53 S 19 G 31 16.09 Fair CLR 36.7 17.2 36.7 22.8 32% 38 76.17 1013.8
31 11:53 S 22 G 33 16.09 Fair CLR 35.6 18.9 37% 38 76.23 1014.4
31 10:53 S 20 16.09 Fair CLR 33.3 19.4 44% 35 76.23 1014.5
31 09:53 S 17 16.09 Fair CLR 30 18.3 49% 31 76.25 1014.9
31 08:53 S 13 16.09 Fair CLR 27.2 17.2 54% 28 76.25 1014.9
31 07:53 SE 7 16.09 Fair CLR 23.9 17.2 66% 25 76.23 1014.7
Date Time (cdt) Wind (kph) Vis. (km) Weather Sky Cond. Air Dwpt Max. Min. Relative Humidity Wind Chill (°C) Heat Index (°C) altimeter (cm) sea level (mb) 1 hr 3 hr 6 hr
6 hour
Temperature (ºC) Pressure Precipitation (cm)